Skip Navigation Links
NOAA logo - Click to go to the NOAA homepage
NOAA's National Weather Service
Alaska Aviation Weather Unit
  NWS logo - Click to go to the NWS homepage
Left Navbar Graphic     02 AKDT = 10 GMT

   
NOAA is celebrating 200 years of science, service, and stewardship. Visit the NOAA 200th celebration Web site to learn more.
USA.gov is the U.S. Government's official Web portal to all Federal, state and local government Web resources and services.
Facebook
NWS on Facebook

AAWU Home :: Display TAF Add Bookmark
METAR PARY 270456Z AUTO 36003KT 10SM CLR M09/M19 A2982=

METAR PARY 270556Z AUTO 00000KT 10SM CLR M11/M20 A2981=

METAR PARY 270656Z AUTO 03004KT 10SM CLR M11/M19 A2980=

METAR PARY 270756Z AUTO 00000KT 10SM CLR M12/M20 A2980=

METAR PARY 270856Z AUTO 00000KT 10SM CLR M12/M20 A2980=

METAR PARY 270956Z AUTO 12003KT 10SM CLR M13/M21 A2979=


NOAA's National Weather Service
Alaska Aviation Weather Unit
6930 Sand Lake Road
Anchorage, AK 99502-1845
Disclaimer
Credits
Glossary
Privacy Policy
About Us
Career Opportunities
Contact AAWU Internet Services Site last modified: April, 17th 2012